sensor_id;sensor_type;location;lat;lon;timestamp;temperature;humidity
11454;DHT22;5783;55.174;61.310;2023-03-20T00:02:24;16.90;62.80
11454;DHT22;5783;55.174;61.310;2023-03-20T00:04:53;16.90;63.60
11454;DHT22;5783;55.174;61.310;2023-03-20T00:07:22;16.90;63.60
11454;DHT22;5783;55.174;61.310;2023-03-20T00:09:52;16.90;63.60
11454;DHT22;5783;55.174;61.310;2023-03-20T00:12:24;16.90;64.10
11454;DHT22;5783;55.174;61.310;2023-03-20T00:14:53;16.90;63.90
11454;DHT22;5783;55.174;61.310;2023-03-20T00:17:22;17.00;64.30
11454;DHT22;5783;55.174;61.310;2023-03-20T00:19:51;17.00;64.20
11454;DHT22;5783;55.174;61.310;2023-03-20T00:22:21;16.90;63.50
11454;DHT22;5783;55.174;61.310;2023-03-20T00:24:50;16.90;63.20
11454;DHT22;5783;55.174;61.310;2023-03-20T00:27:19;16.90;63.30
11454;DHT22;5783;55.174;61.310;2023-03-20T00:29:49;16.90;62.80
11454;DHT22;5783;55.174;61.310;2023-03-20T00:32:18;16.90;63.40
11454;DHT22;5783;55.174;61.310;2023-03-20T00:34:47;16.90;63.20
11454;DHT22;5783;55.174;61.310;2023-03-20T00:37:17;16.90;62.90
11454;DHT22;5783;55.174;61.310;2023-03-20T00:39:46;17.00;63.10
11454;DHT22;5783;55.174;61.310;2023-03-20T00:45:10;17.00;63.40
11454;DHT22;5783;55.174;61.310;2023-03-20T00:47:38;16.90;62.80
11454;DHT22;5783;55.174;61.310;2023-03-20T00:50:29;16.90;63.20
11454;DHT22;5783;55.174;61.310;2023-03-20T00:52:59;16.90;62.90
11454;DHT22;5783;55.174;61.310;2023-03-20T00:55:29;16.80;63.50
11454;DHT22;5783;55.174;61.310;2023-03-20T00:58:00;16.80;64.00
11454;DHT22;5783;55.174;61.310;2023-03-20T01:03:23;16.80;62.20
11454;DHT22;5783;55.174;61.310;2023-03-20T01:06:12;16.80;61.20
11454;DHT22;5783;55.174;61.310;2023-03-20T01:08:41;16.80;60.60
11454;DHT22;5783;55.174;61.310;2023-03-20T01:11:13;16.80;61.10
11454;DHT22;5783;55.174;61.310;2023-03-20T01:13:42;16.90;61.10
11454;DHT22;5783;55.174;61.310;2023-03-20T01:16:31;16.90;60.70
11454;DHT22;5783;55.174;61.310;2023-03-20T01:19:01;16.90;60.10
11454;DHT22;5783;55.174;61.310;2023-03-20T01:21:30;17.00;59.90
11454;DHT22;5783;55.174;61.310;2023-03-20T01:23:59;17.00;59.70
11454;DHT22;5783;55.174;61.310;2023-03-20T01:26:48;17.00;60.30
11454;DHT22;5783;55.174;61.310;2023-03-20T01:29:20;17.00;60.60
11454;DHT22;5783;55.174;61.310;2023-03-20T01:31:50;16.90;60.30
11454;DHT22;5783;55.174;61.310;2023-03-20T01:34:20;16.90;59.80
11454;DHT22;5783;55.174;61.310;2023-03-20T01:36:52;17.00;60.00
11454;DHT22;5783;55.174;61.310;2023-03-20T01:39:25;16.90;60.10
11454;DHT22;5783;55.174;61.310;2023-03-20T01:41:53;16.90;60.30
11454;DHT22;5783;55.174;61.310;2023-03-20T01:44:27;16.90;60.20
11454;DHT22;5783;55.174;61.310;2023-03-20T01:46:55;16.90;60.40
11454;DHT22;5783;55.174;61.310;2023-03-20T01:51:58;16.90;60.90
11454;DHT22;5783;55.174;61.310;2023-03-20T01:54:47;16.90;60.50
11454;DHT22;5783;55.174;61.310;2023-03-20T01:57:19;16.90;60.90
11454;DHT22;5783;55.174;61.310;2023-03-20T01:59:51;16.90;60.40
11454;DHT22;5783;55.174;61.310;2023-03-20T02:02:22;16.80;60.70
11454;DHT22;5783;55.174;61.310;2023-03-20T02:07:46;16.90;61.00
11454;DHT22;5783;55.174;61.310;2023-03-20T02:10:16;16.80;60.60
11454;DHT22;5783;55.174;61.310;2023-03-20T02:12:46;16.80;60.80
11454;DHT22;5783;55.174;61.310;2023-03-20T02:15:17;16.80;61.40
11454;DHT22;5783;55.174;61.310;2023-03-20T02:17:46;16.90;60.00
11454;DHT22;5783;55.174;61.310;2023-03-20T02:20:55;16.80;60.80
11454;DHT22;5783;55.174;61.310;2023-03-20T02:50:50;16.70;66.60
11454;DHT22;5783;55.174;61.310;2023-03-20T03:04:47;16.80;69.30
11454;DHT22;5783;55.174;61.310;2023-03-20T03:07:15;16.80;69.00
11454;DHT22;5783;55.174;61.310;2023-03-20T03:10:08;16.80;69.90
11454;DHT22;5783;55.174;61.310;2023-03-20T03:12:57;16.80;70.20
11454;DHT22;5783;55.174;61.310;2023-03-20T03:15:31;16.90;70.00
11454;DHT22;5783;55.174;61.310;2023-03-20T03:18:02;16.80;70.70
11454;DHT22;5783;55.174;61.310;2023-03-20T03:20:35;16.80;70.10
11454;DHT22;5783;55.174;61.310;2023-03-20T03:23:05;16.80;70.60
11454;DHT22;5783;55.174;61.310;2023-03-20T04:04:52;16.60;73.90
11454;DHT22;5783;55.174;61.310;2023-03-20T05:20:16;18.20;67.30
11454;DHT22;5783;55.174;61.310;2023-03-20T05:22:48;18.50;61.10
11454;DHT22;5783;55.174;61.310;2023-03-20T05:25:17;18.40;61.00
11454;DHT22;5783;55.174;61.310;2023-03-20T05:27:47;18.50;59.80
11454;DHT22;5783;55.174;61.310;2023-03-20T05:30:16;18.50;58.50
11454;DHT22;5783;55.174;61.310;2023-03-20T05:32:48;18.40;59.10
11454;DHT22;5783;55.174;61.310;2023-03-20T05:35:18;18.40;59.10
11454;DHT22;5783;55.174;61.310;2023-03-20T05:37:47;18.40;58.10
11454;DHT22;5783;55.174;61.310;2023-03-20T05:45:18;18.70;64.50
11454;DHT22;5783;55.174;61.310;2023-03-20T05:47:48;19.00;56.80
11454;DHT22;5783;55.174;61.310;2023-03-20T05:50:17;19.00;52.10
11454;DHT22;5783;55.174;61.310;2023-03-20T05:52:48;19.00;51.30
11454;DHT22;5783;55.174;61.310;2023-03-20T05:55:17;19.00;50.10
11454;DHT22;5783;55.174;61.310;2023-03-20T05:57:46;19.10;51.10
11454;DHT22;5783;55.174;61.310;2023-03-20T06:00:16;19.10;50.50
11454;DHT22;5783;55.174;61.310;2023-03-20T06:02:45;19.10;51.40
11454;DHT22;5783;55.174;61.310;2023-03-20T06:05:14;19.10;51.50
11454;DHT22;5783;55.174;61.310;2023-03-20T06:07:44;19.00;51.30
11454;DHT22;5783;55.174;61.310;2023-03-20T06:10:15;18.90;51.80
11454;DHT22;5783;55.174;61.310;2023-03-20T06:12:46;18.80;52.50
11454;DHT22;5783;55.174;61.310;2023-03-20T06:15:16;18.80;52.90
11454;DHT22;5783;55.174;61.310;2023-03-20T06:17:45;18.90;52.70
11454;DHT22;5783;55.174;61.310;2023-03-20T06:20:14;18.80;52.80
11454;DHT22;5783;55.174;61.310;2023-03-20T06:22:43;18.70;54.10
11454;DHT22;5783;55.174;61.310;2023-03-20T06:25:13;18.50;56.40
11454;DHT22;5783;55.174;61.310;2023-03-20T06:27:42;18.40;58.10
11454;DHT22;5783;55.174;61.310;2023-03-20T06:30:14;18.40;55.40
11454;DHT22;5783;55.174;61.310;2023-03-20T06:42:43;18.20;59.50
11454;DHT22;5783;55.174;61.310;2023-03-20T06:47:42;18.10;59.90
11454;DHT22;5783;55.174;61.310;2023-03-20T06:50:13;18.10;46.70
11454;DHT22;5783;55.174;61.310;2023-03-20T06:52:42;18.20;46.50
11454;DHT22;5783;55.174;61.310;2023-03-20T06:55:14;18.30;45.90
11454;DHT22;5783;55.174;61.310;2023-03-20T06:57:48;18.30;44.10
11454;DHT22;5783;55.174;61.310;2023-03-20T07:00:17;18.30;44.20
11454;DHT22;5783;55.174;61.310;2023-03-20T07:02:47;18.30;44.30
11454;DHT22;5783;55.174;61.310;2023-03-20T07:05:16;18.30;43.80
11454;DHT22;5783;55.174;61.310;2023-03-20T07:07:45;18.40;43.90
11454;DHT22;5783;55.174;61.310;2023-03-20T07:10:14;18.40;43.10
11454;DHT22;5783;55.174;61.310;2023-03-20T07:12:43;18.40;44.10
11454;DHT22;5783;55.174;61.310;2023-03-20T07:15:12;18.30;43.70
11454;DHT22;5783;55.174;61.310;2023-03-20T07:17:42;18.20;44.10
11454;DHT22;5783;55.174;61.310;2023-03-20T07:20:11;18.30;44.00
11454;DHT22;5783;55.174;61.310;2023-03-20T07:22:41;18.30;43.90
11454;DHT22;5783;55.174;61.310;2023-03-20T07:25:10;18.30;43.80
11454;DHT22;5783;55.174;61.310;2023-03-20T07:27:41;18.30;42.40
11454;DHT22;5783;55.174;61.310;2023-03-20T07:30:12;18.30;42.90
11454;DHT22;5783;55.174;61.310;2023-03-20T07:32:41;18.20;42.30
11454;DHT22;5783;55.174;61.310;2023-03-20T07:35:11;18.10;43.50
11454;DHT22;5783;55.174;61.310;2023-03-20T07:37:40;18.20;43.70
11454;DHT22;5783;55.174;61.310;2023-03-20T07:40:11;18.20;44.20
11454;DHT22;5783;55.174;61.310;2023-03-20T07:42:41;18.30;43.30
11454;DHT22;5783;55.174;61.310;2023-03-20T07:45:10;18.20;43.20
11454;DHT22;5783;55.174;61.310;2023-03-20T07:47:40;18.00;35.40
11454;DHT22;5783;55.174;61.310;2023-03-20T07:50:10;18.00;31.60
11454;DHT22;5783;55.174;61.310;2023-03-20T07:52:39;17.90;29.10
11454;DHT22;5783;55.174;61.310;2023-03-20T07:57:38;17.50;33.70
11454;DHT22;5783;55.174;61.310;2023-03-20T08:00:08;17.50;34.60
11454;DHT22;5783;55.174;61.310;2023-03-20T08:02:37;17.50;34.10
11454;DHT22;5783;55.174;61.310;2023-03-20T08:05:07;17.60;35.70
11454;DHT22;5783;55.174;61.310;2023-03-20T08:07:36;17.70;33.80
11454;DHT22;5783;55.174;61.310;2023-03-20T08:10:05;17.80;35.20
11454;DHT22;5783;55.174;61.310;2023-03-20T08:12:34;17.90;35.60
11454;DHT22;5783;55.174;61.310;2023-03-20T08:15:04;18.00;36.30
11454;DHT22;5783;55.174;61.310;2023-03-20T08:17:33;18.20;36.70
11454;DHT22;5783;55.174;61.310;2023-03-20T08:20:03;18.30;35.00
11454;DHT22;5783;55.174;61.310;2023-03-20T08:22:33;18.40;35.80
11454;DHT22;5783;55.174;61.310;2023-03-20T08:25:02;18.40;32.80
11454;DHT22;5783;55.174;61.310;2023-03-20T08:27:32;18.30;34.00
11454;DHT22;5783;55.174;61.310;2023-03-20T08:30:01;18.30;34.70
11454;DHT22;5783;55.174;61.310;2023-03-20T08:32:31;18.30;37.40
11454;DHT22;5783;55.174;61.310;2023-03-20T08:37:31;18.60;26.90
11454;DHT22;5783;55.174;61.310;2023-03-20T08:40:00;18.30;27.10
11454;DHT22;5783;55.174;61.310;2023-03-20T08:42:29;18.30;27.60
11454;DHT22;5783;55.174;61.310;2023-03-20T08:44:59;18.30;27.10
11454;DHT22;5783;55.174;61.310;2023-03-20T08:47:30;18.20;26.80
11454;DHT22;5783;55.174;61.310;2023-03-20T08:49:59;18.20;27.20
11454;DHT22;5783;55.174;61.310;2023-03-20T08:52:28;18.30;26.60
11454;DHT22;5783;55.174;61.310;2023-03-20T08:54:57;18.70;26.70
11454;DHT22;5783;55.174;61.310;2023-03-20T08:57:26;18.10;27.10
11454;DHT22;5783;55.174;61.310;2023-03-20T08:59:55;18.20;27.40
11454;DHT22;5783;55.174;61.310;2023-03-20T09:02:27;18.20;27.10
11454;DHT22;5783;55.174;61.310;2023-03-20T09:04:56;18.20;27.50
11454;DHT22;5783;55.174;61.310;2023-03-20T09:07:26;18.30;27.70
11454;DHT22;5783;55.174;61.310;2023-03-20T09:09:55;18.40;27.00
11454;DHT22;5783;55.174;61.310;2023-03-20T09:12:24;18.30;27.00
11454;DHT22;5783;55.174;61.310;2023-03-20T09:14:53;18.30;27.60
11454;DHT22;5783;55.174;61.310;2023-03-20T09:17:22;18.20;26.60
11454;DHT22;5783;55.174;61.310;2023-03-20T09:19:51;18.10;27.00
11454;DHT22;5783;55.174;61.310;2023-03-20T09:22:21;18.10;27.50
11454;DHT22;5783;55.174;61.310;2023-03-20T09:24:50;18.20;27.50
11454;DHT22;5783;55.174;61.310;2023-03-20T09:27:19;18.20;28.40
11454;DHT22;5783;55.174;61.310;2023-03-20T09:29:48;18.60;27.50
11454;DHT22;5783;55.174;61.310;2023-03-20T09:32:17;18.40;27.00
11454;DHT22;5783;55.174;61.310;2023-03-20T09:34:47;18.40;27.70
11454;DHT22;5783;55.174;61.310;2023-03-20T09:37:16;18.50;27.20
11454;DHT22;5783;55.174;61.310;2023-03-20T09:39:45;18.40;27.00
11454;DHT22;5783;55.174;61.310;2023-03-20T09:53:56;18.30;26.70
11454;DHT22;5783;55.174;61.310;2023-03-20T09:56:27;18.40;26.80
11454;DHT22;5783;55.174;61.310;2023-03-20T09:59:00;18.70;27.30
11454;DHT22;5783;55.174;61.310;2023-03-20T10:04:20;18.50;27.00
11454;DHT22;5783;55.174;61.310;2023-03-20T10:06:51;18.50;27.60
11454;DHT22;5783;55.174;61.310;2023-03-20T10:09:23;18.50;26.40
11454;DHT22;5783;55.174;61.310;2023-03-20T10:21:56;18.70;28.20
11454;DHT22;5783;55.174;61.310;2023-03-20T10:27:05;18.50;27.70
11454;DHT22;5783;55.174;61.310;2023-03-20T10:41:35;18.40;27.60
11454;DHT22;5783;55.174;61.310;2023-03-20T10:44:41;18.50;27.90
11454;DHT22;5783;55.174;61.310;2023-03-20T10:46:57;18.50;27.60
11454;DHT22;5783;55.174;61.310;2023-03-20T10:52:38;18.40;28.60
11454;DHT22;5783;55.174;61.310;2023-03-20T11:00:17;18.30;28.40
11454;DHT22;5783;55.174;61.310;2023-03-20T11:02:47;18.30;28.40
11454;DHT22;5783;55.174;61.310;2023-03-20T11:05:36;18.40;28.00
11454;DHT22;5783;55.174;61.310;2023-03-20T11:08:08;18.50;28.00
11454;DHT22;5783;55.174;61.310;2023-03-20T11:10:39;18.60;28.10
11454;DHT22;5783;55.174;61.310;2023-03-20T11:16:36;18.70;28.00
11454;DHT22;5783;55.174;61.310;2023-03-20T11:19:07;18.70;27.30
11454;DHT22;5783;55.174;61.310;2023-03-20T11:30:11;18.60;29.00
11454;DHT22;5783;55.174;61.310;2023-03-20T11:33:02;18.70;29.10
11454;DHT22;5783;55.174;61.310;2023-03-20T11:35:33;18.60;29.00
11454;DHT22;5783;55.174;61.310;2023-03-20T11:38:21;18.60;31.70
11454;DHT22;5783;55.174;61.310;2023-03-20T11:40:51;18.60;31.50
11454;DHT22;5783;55.174;61.310;2023-03-20T11:43:22;18.50;31.10
11454;DHT22;5783;55.174;61.310;2023-03-20T11:46:12;18.40;30.70
11454;DHT22;5783;55.174;61.310;2023-03-20T11:48:43;18.30;30.80
11454;DHT22;5783;55.174;61.310;2023-03-20T11:51:33;18.20;31.20
11454;DHT22;5783;55.174;61.310;2023-03-20T11:54:24;18.10;31.10
11454;DHT22;5783;55.174;61.310;2023-03-20T12:07:00;17.90;32.50
11454;DHT22;5783;55.174;61.310;2023-03-20T12:15:48;17.70;31.00
11454;DHT22;5783;55.174;61.310;2023-03-20T12:27:27;17.40;30.90
11454;DHT22;5783;55.174;61.310;2023-03-20T12:35:57;17.40;32.20
11454;DHT22;5783;55.174;61.310;2023-03-20T12:38:30;17.20;44.50
11454;DHT22;5783;55.174;61.310;2023-03-20T13:21:00;17.50;47.00
11454;DHT22;5783;55.174;61.310;2023-03-20T13:26:43;17.30;40.60
11454;DHT22;5783;55.174;61.310;2023-03-20T13:29:33;17.30;40.00
11454;DHT22;5783;55.174;61.310;2023-03-20T13:41:09;17.30;36.70
11454;DHT22;5783;55.174;61.310;2023-03-20T13:43:59;17.30;52.90
11454;DHT22;5783;55.174;61.310;2023-03-20T13:46:50;17.20;52.60
11454;DHT22;5783;55.174;61.310;2023-03-20T13:52:31;17.20;52.00
11454;DHT22;5783;55.174;61.310;2023-03-20T13:55:06;17.20;52.10
11454;DHT22;5783;55.174;61.310;2023-03-20T14:03:53;16.90;35.50
11454;DHT22;5783;55.174;61.310;2023-03-20T14:06:43;16.80;37.60
11454;DHT22;5783;55.174;61.310;2023-03-20T14:09:33;16.90;37.80
11454;DHT22;5783;55.174;61.310;2023-03-20T14:12:37;16.90;35.50
11454;DHT22;5783;55.174;61.310;2023-03-20T14:14:55;16.90;34.90
11454;DHT22;5783;55.174;61.310;2023-03-20T14:17:27;16.90;35.00
11454;DHT22;5783;55.174;61.310;2023-03-20T14:20:08;17.00;34.80
11454;DHT22;5783;55.174;61.310;2023-03-20T14:22:51;17.10;34.30
11454;DHT22;5783;55.174;61.310;2023-03-20T14:25:21;17.10;34.30
11454;DHT22;5783;55.174;61.310;2023-03-20T14:33:30;17.30;33.60
11454;DHT22;5783;55.174;61.310;2023-03-20T14:51:29;17.40;33.00
11454;DHT22;5783;55.174;61.310;2023-03-20T14:56:48;17.30;32.70
11454;DHT22;5783;55.174;61.310;2023-03-20T14:59:37;17.30;32.30
11454;DHT22;5783;55.174;61.310;2023-03-20T15:02:44;17.20;32.30
11454;DHT22;5783;55.174;61.310;2023-03-20T15:04:59;17.30;21.90
11454;DHT22;5783;55.174;61.310;2023-03-20T15:07:33;17.30;21.80
11454;DHT22;5783;55.174;61.310;2023-03-20T15:10:04;17.20;22.50
11454;DHT22;5783;55.174;61.310;2023-03-20T15:12:35;17.20;22.90
11454;DHT22;5783;55.174;61.310;2023-03-20T15:15:21;17.20;23.80
11454;DHT22;5783;55.174;61.310;2023-03-20T15:17:42;17.20;24.10
11454;DHT22;5783;55.174;61.310;2023-03-20T15:20:30;17.30;24.40
11454;DHT22;5783;55.174;61.310;2023-03-20T15:23:00;17.40;24.50
11454;DHT22;5783;55.174;61.310;2023-03-20T15:25:51;17.40;24.50
11454;DHT22;5783;55.174;61.310;2023-03-20T15:28:40;17.40;24.50
11454;DHT22;5783;55.174;61.310;2023-03-20T15:31:31;17.40;24.60
11454;DHT22;5783;55.174;61.310;2023-03-20T15:34:03;17.40;24.70
11454;DHT22;5783;55.174;61.310;2023-03-20T15:36:34;17.40;24.70
11454;DHT22;5783;55.174;61.310;2023-03-20T15:44:47;17.60;24.60
11454;DHT22;5783;55.174;61.310;2023-03-20T15:47:19;17.60;24.70
11454;DHT22;5783;55.174;61.310;2023-03-20T15:49:52;17.60;24.80
11454;DHT22;5783;55.174;61.310;2023-03-20T15:55:16;17.70;24.80
11454;DHT22;5783;55.174;61.310;2023-03-20T15:57:46;17.70;24.80
11454;DHT22;5783;55.174;61.310;2023-03-20T16:00:39;17.70;24.90
11454;DHT22;5783;55.174;61.310;2023-03-20T16:03:10;17.80;25.10
11454;DHT22;5783;55.174;61.310;2023-03-20T16:05:42;17.80;25.00
11454;DHT22;5783;55.174;61.310;2023-03-20T16:11:24;17.80;25.10
11454;DHT22;5783;55.174;61.310;2023-03-20T16:13:53;17.90;25.30
11454;DHT22;5783;55.174;61.310;2023-03-20T16:16:23;17.90;25.30
11454;DHT22;5783;55.174;61.310;2023-03-20T16:18:54;17.90;25.30
11454;DHT22;5783;55.174;61.310;2023-03-20T16:24:53;18.00;25.40
11454;DHT22;5783;55.174;61.310;2023-03-20T16:27:25;17.90;25.30
11454;DHT22;5783;55.174;61.310;2023-03-20T16:29:55;17.90;25.40
11454;DHT22;5783;55.174;61.310;2023-03-20T16:38:27;17.80;25.40
11454;DHT22;5783;55.174;61.310;2023-03-20T16:44:10;17.80;25.50
11454;DHT22;5783;55.174;61.310;2023-03-20T16:52:51;17.80;25.30
11454;DHT22;5783;55.174;61.310;2023-03-20T16:54:51;17.80;25.30
11454;DHT22;5783;55.174;61.310;2023-03-20T16:57:21;17.80;25.20
11454;DHT22;5783;55.174;61.310;2023-03-20T16:59:51;17.90;25.50
11454;DHT22;5783;55.174;61.310;2023-03-20T17:02:25;17.90;25.50
11454;DHT22;5783;55.174;61.310;2023-03-20T17:04:56;17.90;25.60
11454;DHT22;5783;55.174;61.310;2023-03-20T17:07:26;17.90;25.60
11454;DHT22;5783;55.174;61.310;2023-03-20T17:12:48;17.90;25.70
11454;DHT22;5783;55.174;61.310;2023-03-20T17:15:21;17.80;25.70
11454;DHT22;5783;55.174;61.310;2023-03-20T17:17:51;17.80;25.80
11454;DHT22;5783;55.174;61.310;2023-03-20T17:20:40;17.80;26.10
11454;DHT22;5783;55.174;61.310;2023-03-20T17:26:00;17.80;26.10
11454;DHT22;5783;55.174;61.310;2023-03-20T17:28:49;17.80;26.00
11454;DHT22;5783;55.174;61.310;2023-03-20T17:31:18;17.80;26.10
11454;DHT22;5783;55.174;61.310;2023-03-20T17:33:47;17.90;26.00
11454;DHT22;5783;55.174;61.310;2023-03-20T17:36:36;17.90;25.90
11454;DHT22;5783;55.174;61.310;2023-03-20T17:39:06;18.00;25.80
11454;DHT22;5783;55.174;61.310;2023-03-20T17:41:35;18.00;26.00
11454;DHT22;5783;55.174;61.310;2023-03-20T17:44:04;18.00;25.60
11454;DHT22;5783;55.174;61.310;2023-03-20T17:46:33;18.10;25.70
11454;DHT22;5783;55.174;61.310;2023-03-20T17:49:05;18.10;25.50
11454;DHT22;5783;55.174;61.310;2023-03-20T17:51:34;18.10;25.60
11454;DHT22;5783;55.174;61.310;2023-03-20T17:54:03;18.10;25.50
11454;DHT22;5783;55.174;61.310;2023-03-20T17:56:33;18.20;25.50
11454;DHT22;5783;55.174;61.310;2023-03-20T17:59:02;18.20;25.60
11454;DHT22;5783;55.174;61.310;2023-03-20T18:01:33;18.20;25.30
11454;DHT22;5783;55.174;61.310;2023-03-20T18:04:03;18.20;25.80
11454;DHT22;5783;55.174;61.310;2023-03-20T18:06:33;18.20;25.40
11454;DHT22;5783;55.174;61.310;2023-03-20T18:09:03;18.30;25.90
11454;DHT22;5783;55.174;61.310;2023-03-20T18:11:34;18.30;26.20
11454;DHT22;5783;55.174;61.310;2023-03-20T18:14:03;18.30;26.20
11454;DHT22;5783;55.174;61.310;2023-03-20T18:16:34;18.20;26.10
11454;DHT22;5783;55.174;61.310;2023-03-20T18:19:03;18.20;26.00
11454;DHT22;5783;55.174;61.310;2023-03-20T18:21:32;18.20;26.00
11454;DHT22;5783;55.174;61.310;2023-03-20T18:24:01;18.30;26.00
11454;DHT22;5783;55.174;61.310;2023-03-20T18:26:30;18.30;25.90
11454;DHT22;5783;55.174;61.310;2023-03-20T18:28:59;18.30;25.80
11454;DHT22;5783;55.174;61.310;2023-03-20T18:31:29;18.30;25.80
11454;DHT22;5783;55.174;61.310;2023-03-20T18:33:58;18.30;25.80
11454;DHT22;5783;55.174;61.310;2023-03-20T18:36:27;18.30;25.80
11454;DHT22;5783;55.174;61.310;2023-03-20T18:38:56;18.30;25.80
11454;DHT22;5783;55.174;61.310;2023-03-20T18:41:25;18.30;25.70
11454;DHT22;5783;55.174;61.310;2023-03-20T18:43:55;18.40;25.80
11454;DHT22;5783;55.174;61.310;2023-03-20T18:46:24;18.40;25.70
11454;DHT22;5783;55.174;61.310;2023-03-20T18:48:54;18.40;25.90
11454;DHT22;5783;55.174;61.310;2023-03-20T18:51:23;18.40;25.80
11454;DHT22;5783;55.174;61.310;2023-03-20T18:53:52;18.40;26.00
11454;DHT22;5783;55.174;61.310;2023-03-20T18:56:24;18.40;25.70
11454;DHT22;5783;55.174;61.310;2023-03-20T18:58:53;18.40;25.60
11454;DHT22;5783;55.174;61.310;2023-03-20T19:01:23;18.40;25.80
11454;DHT22;5783;55.174;61.310;2023-03-20T19:03:52;18.40;25.80
11454;DHT22;5783;55.174;61.310;2023-03-20T19:06:22;18.40;25.80
11454;DHT22;5783;55.174;61.310;2023-03-20T19:08:52;18.40;25.90
11454;DHT22;5783;55.174;61.310;2023-03-20T19:11:21;18.40;25.90
11454;DHT22;5783;55.174;61.310;2023-03-20T19:13:51;18.40;25.90
11454;DHT22;5783;55.174;61.310;2023-03-20T19:16:40;18.40;25.90
11454;DHT22;5783;55.174;61.310;2023-03-20T19:19:12;18.40;26.00
11454;DHT22;5783;55.174;61.310;2023-03-20T19:21:41;18.40;26.00
11454;DHT22;5783;55.174;61.310;2023-03-20T19:24:11;18.40;26.00
11454;DHT22;5783;55.174;61.310;2023-03-20T19:26:40;18.40;26.00
11454;DHT22;5783;55.174;61.310;2023-03-20T19:29:10;18.40;25.90
11454;DHT22;5783;55.174;61.310;2023-03-20T19:31:39;18.40;26.00
11454;DHT22;5783;55.174;61.310;2023-03-20T19:34:08;18.40;25.90
11454;DHT22;5783;55.174;61.310;2023-03-20T19:36:39;18.40;25.90
11454;DHT22;5783;55.174;61.310;2023-03-20T19:39:11;18.40;25.80
11454;DHT22;5783;55.174;61.310;2023-03-20T19:41:42;18.40;25.90
11454;DHT22;5783;55.174;61.310;2023-03-20T19:44:11;18.50;25.90
11454;DHT22;5783;55.174;61.310;2023-03-20T19:46:40;18.50;25.50
11454;DHT22;5783;55.174;61.310;2023-03-20T19:49:29;18.50;25.80
11454;DHT22;5783;55.174;61.310;2023-03-20T19:51:58;18.50;26.20
11454;DHT22;5783;55.174;61.310;2023-03-20T19:54:29;18.50;26.00
11454;DHT22;5783;55.174;61.310;2023-03-20T19:56:58;18.50;26.10
11454;DHT22;5783;55.174;61.310;2023-03-20T19:59:27;18.50;26.00
11454;DHT22;5783;55.174;61.310;2023-03-20T20:01:56;18.50;26.00
11454;DHT22;5783;55.174;61.310;2023-03-20T20:04:26;18.60;26.00
11454;DHT22;5783;55.174;61.310;2023-03-20T20:06:55;18.60;26.00
11454;DHT22;5783;55.174;61.310;2023-03-20T20:09:24;18.60;25.90
11454;DHT22;5783;55.174;61.310;2023-03-20T20:11:54;18.60;26.00
11454;DHT22;5783;55.174;61.310;2023-03-20T20:14:24;18.60;25.90
11454;DHT22;5783;55.174;61.310;2023-03-20T20:16:53;18.60;26.00
11454;DHT22;5783;55.174;61.310;2023-03-20T20:19:22;18.60;26.00
11454;DHT22;5783;55.174;61.310;2023-03-20T20:21:53;18.60;26.10
11454;DHT22;5783;55.174;61.310;2023-03-20T20:24:22;18.60;26.10
11454;DHT22;5783;55.174;61.310;2023-03-20T20:26:53;18.60;26.00
11454;DHT22;5783;55.174;61.310;2023-03-20T20:29:23;18.70;25.90
11454;DHT22;5783;55.174;61.310;2023-03-20T20:31:52;18.70;26.00
11454;DHT22;5783;55.174;61.310;2023-03-20T20:34:21;18.60;25.90
11454;DHT22;5783;55.174;61.310;2023-03-20T20:36:50;18.60;26.00
11454;DHT22;5783;55.174;61.310;2023-03-20T20:39:19;18.70;26.00
11454;DHT22;5783;55.174;61.310;2023-03-20T20:41:48;18.70;25.90
11454;DHT22;5783;55.174;61.310;2023-03-20T20:44:17;18.70;26.20
11454;DHT22;5783;55.174;61.310;2023-03-20T20:46:46;18.70;25.90
11454;DHT22;5783;55.174;61.310;2023-03-20T20:49:16;18.70;25.90
11454;DHT22;5783;55.174;61.310;2023-03-20T20:51:45;18.70;26.00
11454;DHT22;5783;55.174;61.310;2023-03-20T20:54:14;18.80;26.10
11454;DHT22;5783;55.174;61.310;2023-03-20T20:56:44;18.80;26.10
11454;DHT22;5783;55.174;61.310;2023-03-20T20:59:13;18.70;26.00
11454;DHT22;5783;55.174;61.310;2023-03-20T21:01:42;18.70;26.20
11454;DHT22;5783;55.174;61.310;2023-03-20T21:04:12;18.70;26.10
11454;DHT22;5783;55.174;61.310;2023-03-20T21:06:41;18.70;26.00
11454;DHT22;5783;55.174;61.310;2023-03-20T21:09:10;18.70;26.10
11454;DHT22;5783;55.174;61.310;2023-03-20T21:11:39;18.70;26.10
11454;DHT22;5783;55.174;61.310;2023-03-20T21:14:09;18.80;26.20
11454;DHT22;5783;55.174;61.310;2023-03-20T21:16:38;18.80;26.20
11454;DHT22;5783;55.174;61.310;2023-03-20T21:19:07;18.80;26.20
11454;DHT22;5783;55.174;61.310;2023-03-20T21:21:36;18.80;26.20
11454;DHT22;5783;55.174;61.310;2023-03-20T21:24:06;18.70;26.20
11454;DHT22;5783;55.174;61.310;2023-03-20T21:26:37;18.80;26.30
11454;DHT22;5783;55.174;61.310;2023-03-20T21:29:06;18.70;26.30
11454;DHT22;5783;55.174;61.310;2023-03-20T21:31:36;18.70;26.30
11454;DHT22;5783;55.174;61.310;2023-03-20T21:34:05;18.70;26.20
11454;DHT22;5783;55.174;61.310;2023-03-20T21:36:34;18.70;26.10
11454;DHT22;5783;55.174;61.310;2023-03-20T21:39:03;18.80;26.10
11454;DHT22;5783;55.174;61.310;2023-03-20T21:41:32;18.80;26.20
11454;DHT22;5783;55.174;61.310;2023-03-20T21:44:04;18.80;26.20
11454;DHT22;5783;55.174;61.310;2023-03-20T21:46:34;18.80;26.20
11454;DHT22;5783;55.174;61.310;2023-03-20T21:49:03;18.80;26.10
11454;DHT22;5783;55.174;61.310;2023-03-20T21:51:32;18.80;26.20
11454;DHT22;5783;55.174;61.310;2023-03-20T21:54:02;18.80;26.20
11454;DHT22;5783;55.174;61.310;2023-03-20T21:56:31;18.80;26.30
11454;DHT22;5783;55.174;61.310;2023-03-20T21:59:01;18.80;26.30
11454;DHT22;5783;55.174;61.310;2023-03-20T22:01:31;18.80;26.20
11454;DHT22;5783;55.174;61.310;2023-03-20T22:04:00;18.80;26.30
11454;DHT22;5783;55.174;61.310;2023-03-20T22:06:29;18.90;26.30
11454;DHT22;5783;55.174;61.310;2023-03-20T22:08:59;18.90;26.40
11454;DHT22;5783;55.174;61.310;2023-03-20T22:11:28;18.90;26.30
11454;DHT22;5783;55.174;61.310;2023-03-20T22:13:57;18.90;26.40
11454;DHT22;5783;55.174;61.310;2023-03-20T22:16:26;18.90;26.50
11454;DHT22;5783;55.174;61.310;2023-03-20T22:18:56;19.00;26.40
11454;DHT22;5783;55.174;61.310;2023-03-20T22:21:25;19.00;26.40
11454;DHT22;5783;55.174;61.310;2023-03-20T22:23:54;19.00;26.40
11454;DHT22;5783;55.174;61.310;2023-03-20T22:26:23;19.00;26.40
11454;DHT22;5783;55.174;61.310;2023-03-20T22:28:52;19.00;26.40
11454;DHT22;5783;55.174;61.310;2023-03-20T22:31:22;18.90;26.60
11454;DHT22;5783;55.174;61.310;2023-03-20T22:33:51;18.90;26.40
11454;DHT22;5783;55.174;61.310;2023-03-20T22:36:20;18.90;26.60